createdAt,value
2023-12-27T00:04:59.659Z,0
2023-12-27T00:09:59.225Z,0
2023-12-27T00:14:58.743Z,0
2023-12-27T00:19:59.793Z,0
2023-12-27T00:24:58.724Z,0
2023-12-27T00:34:59.110Z,0
2023-12-27T00:39:55.948Z,0
2023-12-27T00:44:55.636Z,0
2023-12-27T00:49:55.921Z,0
2023-12-27T00:54:55.963Z,0
2023-12-27T00:59:55.866Z,0
2023-12-27T01:01:59.177Z,0
2023-12-27T01:06:19.347Z,0
2023-12-27T01:11:19.254Z,0
2023-12-27T01:16:16.631Z,0
2023-12-27T01:21:16.042Z,0
2023-12-27T01:26:15.752Z,0
2023-12-27T01:31:16.201Z,0
2023-12-27T01:36:16.237Z,0
2023-12-27T01:41:15.628Z,0
2023-12-27T01:46:16.180Z,0
2023-12-27T01:51:16.348Z,0
2023-12-27T01:56:17.080Z,0
2023-12-27T02:00:48.573Z,0
2023-12-27T02:05:49.411Z,0
2023-12-27T02:10:49.041Z,0
2023-12-27T02:15:49.941Z,0
2023-12-27T02:20:50.351Z,0
2023-12-27T02:25:49.924Z,0
2023-12-27T02:35:49.260Z,0
2023-12-27T02:40:48.053Z,0
2023-12-27T02:45:49.030Z,0
2023-12-27T02:50:49.498Z,0
2023-12-27T02:55:49.461Z,0
2023-12-27T03:00:23.127Z,0
2023-12-27T03:05:22.351Z,0
2023-12-27T03:10:22.082Z,0
2023-12-27T03:15:22.412Z,0
2023-12-27T03:20:22.348Z,0
2023-12-27T03:25:21.881Z,0
2023-12-27T03:30:22.342Z,0
2023-12-27T03:35:22.234Z,0
2023-12-27T03:40:21.689Z,0
2023-12-27T03:45:19.322Z,0
2023-12-27T03:50:19.167Z,0
2023-12-27T03:55:18.349Z,0
2023-12-27T04:00:01.735Z,0
2023-12-27T04:05:01.849Z,0
2023-12-27T04:10:01.944Z,0
2023-12-27T04:15:01.713Z,0
2023-12-27T04:20:02.448Z,0
2023-12-27T04:24:59.221Z,0
2023-12-27T04:29:58.618Z,0
2023-12-27T04:34:58.844Z,0
2023-12-27T04:39:58.820Z,0
2023-12-27T04:44:58.363Z,0
2023-12-27T04:49:59.620Z,0
2023-12-27T04:54:58.781Z,0
2023-12-27T04:59:58.704Z,0
2023-12-27T05:04:59.999Z,0
2023-12-27T05:09:55.852Z,0
2023-12-27T05:14:55.721Z,0
2023-12-27T05:19:55.783Z,0
2023-12-27T05:24:56.058Z,0
2023-12-27T05:29:58.251Z,0
2023-12-27T05:34:56.359Z,0
2023-12-27T05:39:55.508Z,0
2023-12-27T05:44:55.478Z,0
2023-12-27T05:49:53.678Z,0
2023-12-27T05:54:52.937Z,0
2023-12-27T05:59:52.652Z,0
2023-12-27T06:01:58.140Z,0
2023-12-27T06:06:15.255Z,0
2023-12-27T06:11:15.283Z,0
2023-12-27T06:16:14.739Z,0
2023-12-27T06:21:14.628Z,0
2023-12-27T06:26:13.263Z,0
2023-12-27T06:31:13.108Z,0
2023-12-27T06:36:12.508Z,0
2023-12-27T06:41:12.778Z,0
2023-12-27T06:46:11.972Z,0
2023-12-27T06:51:13.134Z,0
2023-12-27T06:56:12.650Z,0
2023-12-27T07:00:36.004Z,0
2023-12-27T07:10:33.679Z,0
2023-12-27T07:15:33.413Z,0
2023-12-27T07:20:34.306Z,0
2023-12-27T07:25:33.536Z,0
2023-12-27T07:30:33.788Z,0
2023-12-27T07:35:33.541Z,0
2023-12-27T07:40:33.404Z,0.01
2023-12-27T07:45:31.885Z,0.01
2023-12-27T07:50:32.005Z,0.02
2023-12-27T07:55:30.823Z,0.02
2023-12-27T08:00:17.489Z,0.03
2023-12-27T08:05:16.941Z,0.03
2023-12-27T08:10:16.362Z,0.03
2023-12-27T08:15:16.840Z,0.04
2023-12-27T08:20:16.974Z,0.05
2023-12-27T08:25:16.745Z,0.06
2023-12-27T08:30:13.951Z,0.07
2023-12-27T08:35:14.281Z,0.08
2023-12-27T08:40:13.215Z,0.09
2023-12-27T08:45:13.535Z,0.1
2023-12-27T08:50:15.898Z,0.1
2023-12-27T08:55:13.341Z,0.11
2023-12-27T09:00:13.551Z,0.12
2023-12-27T09:05:14.091Z,0.12
2023-12-27T09:10:14.544Z,0.13
2023-12-27T09:15:10.943Z,0.14
2023-12-27T09:20:11.364Z,0.15
2023-12-27T09:25:11.146Z,0.15
2023-12-27T09:30:10.946Z,0.16
2023-12-27T09:35:11.894Z,0.17
2023-12-27T09:40:11.906Z,0.18
2023-12-27T09:45:11.987Z,0.2
2023-12-27T09:50:13.712Z,0.19
2023-12-27T09:55:09.545Z,0.18
2023-12-27T10:00:09.179Z,0.17
2023-12-27T10:05:09.443Z,0.18
2023-12-27T10:10:16.788Z,0.2
2023-12-27T10:15:09.127Z,0.23
2023-12-27T10:20:10.380Z,0.2
2023-12-27T10:25:09.022Z,0.19
2023-12-27T10:30:09.061Z,0.19
2023-12-27T10:35:08.287Z,0.19
2023-12-27T10:40:07.948Z,0.19
2023-12-27T10:45:07.668Z,0.23
2023-12-27T10:50:08.646Z,0.26
2023-12-27T10:55:07.921Z,0.25
2023-12-27T11:00:08.072Z,0.26
2023-12-27T11:05:08.338Z,0.26
2023-12-27T11:10:07.981Z,0.24
2023-12-27T11:15:06.777Z,0.23
2023-12-27T11:20:06.674Z,0.22
2023-12-27T11:25:06.162Z,0.23
2023-12-27T11:30:06.162Z,0.23
2023-12-27T11:35:06.246Z,0.23
2023-12-27T11:40:05.520Z,0.23
2023-12-27T11:45:05.944Z,0.25
2023-12-27T11:50:06.273Z,0.25
2023-12-27T11:55:05.361Z,0.24
2023-12-27T12:00:02.785Z,0.24
2023-12-27T12:05:02.889Z,0.23
2023-12-27T12:10:02.409Z,0.23
2023-12-27T12:15:02.290Z,0.22
2023-12-27T12:20:03.157Z,0.21
2023-12-27T12:25:03.108Z,0.2
2023-12-27T12:30:02.437Z,0.2
2023-12-27T12:35:03.411Z,0.19
2023-12-27T12:40:00.108Z,0.19
2023-12-27T12:45:00.999Z,0.18
2023-12-27T12:49:59.923Z,0.17
2023-12-27T12:54:59.514Z,0.16
2023-12-27T12:59:59.427Z,0.15
2023-12-27T13:04:59.697Z,0.15
2023-12-27T13:09:59.881Z,0.15
2023-12-27T13:14:59.248Z,0.14
2023-12-27T13:20:01.246Z,0.13
2023-12-27T13:24:56.383Z,0.13
2023-12-27T13:34:56.521Z,0.11
2023-12-27T13:39:56.388Z,0.1
2023-12-27T13:44:55.883Z,0.1
2023-12-27T13:49:57.319Z,0.1
2023-12-27T13:54:56.067Z,0.09
2023-12-27T14:02:03.474Z,0.08
2023-12-27T14:06:19.312Z,0.07
2023-12-27T14:11:18.528Z,0.07
2023-12-27T14:16:19.127Z,0.06
2023-12-27T14:21:18.682Z,0.06
2023-12-27T14:26:18.861Z,0.05
2023-12-27T14:31:18.462Z,0.05
2023-12-27T14:36:18.256Z,0.04
2023-12-27T14:41:18.931Z,0.04
2023-12-27T14:46:20.115Z,0.03
2023-12-27T14:51:17.094Z,0.03
2023-12-27T14:56:16.931Z,0.02
2023-12-27T15:00:49.548Z,0.02
2023-12-27T15:05:49.999Z,0.01
2023-12-27T15:10:49.908Z,0.01
2023-12-27T15:15:50.780Z,0.01
2023-12-27T15:20:36.736Z,0.01
2023-12-27T15:25:35.723Z,0
2023-12-27T15:30:35.741Z,0
2023-12-27T15:35:35.870Z,0
2023-12-27T15:40:35.320Z,0
2023-12-27T15:45:35.574Z,0
2023-12-27T15:50:35.748Z,0
2023-12-27T15:55:36.106Z,0
2023-12-27T16:00:22.098Z,0
2023-12-27T16:05:25.114Z,0
2023-12-27T16:10:20.738Z,0
2023-12-27T16:15:21.141Z,0
2023-12-27T16:20:23.246Z,0
2023-12-27T16:25:20.997Z,0
2023-12-27T16:30:20.627Z,0
2023-12-27T16:35:20.981Z,0
2023-12-27T16:40:18.808Z,0
2023-12-27T16:50:17.987Z,0
2023-12-27T16:55:17.718Z,0
2023-12-27T17:00:01.380Z,0
2023-12-27T17:05:02.063Z,0
2023-12-27T17:10:03.441Z,0
2023-12-27T17:15:01.952Z,0
2023-12-27T17:20:00.729Z,0
2023-12-27T17:25:00.706Z,0
2023-12-27T17:30:00.382Z,0
2023-12-27T17:35:01.967Z,0
2023-12-27T17:39:59.942Z,0
2023-12-27T17:44:59.825Z,0
2023-12-27T17:50:00.697Z,0
2023-12-27T17:55:00.065Z,0
2023-12-27T18:00:00.028Z,0
2023-12-27T18:04:58.176Z,0
2023-12-27T18:09:57.136Z,0
2023-12-27T18:14:56.845Z,0
2023-12-27T18:19:57.700Z,0
2023-12-27T18:24:57.138Z,0
2023-12-27T18:29:56.920Z,0
2023-12-27T18:34:58.317Z,0
2023-12-27T18:39:57.337Z,0
2023-12-27T18:44:58.243Z,0
2023-12-27T18:49:54.997Z,0
2023-12-27T18:54:54.440Z,0
2023-12-27T18:59:54.418Z,0
2023-12-27T19:01:57.089Z,0
2023-12-27T19:06:17.568Z,0
2023-12-27T19:11:17.784Z,0
2023-12-27T19:16:19.419Z,0
2023-12-27T19:21:18.810Z,0
2023-12-27T19:26:14.604Z,0
2023-12-27T19:31:14.640Z,0
2023-12-27T19:36:14.538Z,0
2023-12-27T19:41:14.695Z,0
2023-12-27T19:46:14.399Z,0
2023-12-27T19:51:14.684Z,0
2023-12-27T19:56:14.468Z,0
2023-12-27T20:00:48.573Z,0
2023-12-27T20:05:35.558Z,0
2023-12-27T20:10:34.733Z,0
2023-12-27T20:20:35.423Z,0
2023-12-27T20:25:34.862Z,0
2023-12-27T20:30:35.545Z,0
2023-12-27T20:35:35.764Z,0
2023-12-27T20:40:35.671Z,0
2023-12-27T20:45:32.854Z,0
2023-12-27T20:50:32.816Z,0
2023-12-27T20:55:32.193Z,0
2023-12-27T21:00:21.830Z,0
2023-12-27T21:05:21.704Z,0
2023-12-27T21:10:21.371Z,0
2023-12-27T21:15:21.781Z,0
2023-12-27T21:20:22.486Z,0
2023-12-27T21:25:22.609Z,0
2023-12-27T21:30:22.200Z,0
2023-12-27T21:35:19.282Z,0
2023-12-27T21:40:18.604Z,0
2023-12-27T21:45:18.944Z,0
2023-12-27T21:50:19.557Z,0
2023-12-27T21:55:19.077Z,0
2023-12-27T22:00:02.822Z,0
2023-12-27T22:05:02.831Z,0
2023-12-27T22:10:00.522Z,0
2023-12-27T22:20:00.387Z,0
2023-12-27T22:25:01.356Z,0
2023-12-27T22:30:00.165Z,0
2023-12-27T22:35:00.569Z,0
2023-12-27T22:39:59.633Z,0
2023-12-27T22:44:59.456Z,0
2023-12-27T22:49:58.604Z,0
2023-12-27T22:59:57.901Z,0
2023-12-27T23:04:58.972Z,0
2023-12-27T23:09:57.593Z,0
2023-12-27T23:19:59.909Z,0
2023-12-27T23:24:58.098Z,0
2023-12-27T23:29:56.444Z,0
2023-12-27T23:34:56.717Z,0
2023-12-27T23:39:55.637Z,0
2023-12-27T23:44:55.952Z,0
2023-12-27T23:49:56.444Z,0
2023-12-27T23:54:56.256Z,0
2023-12-27T23:59:55.571Z,0
